Latest Weather Observations for Mallacoota

IDV60801

Issued at 5:02 pm EST Friday 31 July 2015 (issued every 30 minutes, with the page automatically refreshed every 10 minutes)

About weather observations | Map of weather stations | Latest weather observations for VIC | Other Formats
Station Details ID: 084084 Name: MALLACOOTA Lat: -37.60 Lon: 149.73 Height: 22.0 m
Data from the previous 72 hours. | See also: Recent months at Mallacoota
Date/Time
EST
Temp
°C
App
Temp
°C
Dew
Point
Rel
Hum
%
Delta-T
°C
Wind Press
QNH
hPa
Press
MSL
hPa
Rain
since 9 am
mm
Dir
 
Spd
km/h
Gust
km/h
Spd
kts
Gust
kts
31/05:00pm 8.7 7.4 3.9 72 2.1 CALM 0 6 0 3 1018.3 - 0.0
31/04:30pm 11.3 8.9 5.2 66 2.8 SSW 7 11 4 6 1018.4 - 0.0
31/04:00pm 11.7 8.5 5.1 64 3.0 SSW 11 19 6 10 1018.5 - 0.0
31/03:30pm 12.1 8.5 5.0 62 3.3 S 13 22 7 12 1018.4 - 0.0
31/03:00pm 12.3 8.7 5.0 61 3.3 S 13 20 7 11 1018.7 1018.7 0.0
31/02:30pm 12.8 8.6 5.7 62 3.3 S 17 24 9 13 1018.7 - 0.0
31/02:00pm 12.5 7.8 5.0 60 3.5 S 19 26 10 14 1018.8 - 0.0
31/01:30pm 13.0 9.6 3.9 54 4.1 SW 11 15 6 8 1019.2 - 0.0
31/01:00pm 12.5 8.5 2.9 52 4.2 WSW 13 22 7 12 1019.6 - 0.0
31/12:30pm 12.4 9.5 4.4 58 3.6 W 9 15 5 8 1019.7 - 0.0
31/12:00pm 11.1 7.8 4.3 63 3.0 WSW 11 17 6 9 1020.3 1020.3 0.0
31/11:30am 11.7 8.3 4.2 60 3.4 WSW 11 24 6 13 1020.7 - 0.0
31/11:00am 12.7 8.8 5.4 61 3.4 WNW 15 24 8 13 1021.0 - 0.0
31/10:30am 11.8 8.2 5.0 63 3.1 W 13 20 7 11 1021.1 - 0.0
31/10:00am 11.7 8.2 5.3 65 2.9 W 13 22 7 12 1020.6 - 0.0
31/09:30am 10.9 7.3 5.2 68 2.6 W 13 26 7 14 1020.5 - 0.0
31/09:00am 11.0 7.2 5.7 70 2.4 W 15 26 8 14 1020.2 1020.2 0.0
31/08:30am 9.7 6.5 5.1 73 2.1 W 11 19 6 10 1020.2 - 0.0
31/08:00am 9.2 5.9 4.8 74 2.0 WNW 11 17 6 9 1019.9 - 0.0
31/07:30am 9.3 6.1 4.9 74 2.0 W 11 17 6 9 1019.5 - 0.0
31/07:00am 8.9 5.9 4.3 73 2.0 WNW 9 13 5 7 1019.0 - 0.0
31/06:30am 9.4 6.4 4.2 70 2.3 W 9 13 5 7 1018.4 - 0.0
31/06:00am 10.0 6.7 4.4 68 2.5 W 11 17 6 9 1017.9 1017.9 0.0
31/05:30am 10.6 6.9 4.5 66 2.7 WSW 13 24 7 13 1017.6 - 0.0
31/05:00am 10.8 7.1 4.3 64 2.9 WSW 13 20 7 11 1017.3 - 0.0
31/04:30am 10.7 6.6 4.2 64 2.9 WSW 15 24 8 13 1016.9 - 0.0
31/04:00am 10.8 5.9 4.3 64 2.9 WSW 19 32 10 17 1016.2 - 0.0
31/03:30am 10.9 6.4 4.1 63 3.0 WSW 17 32 9 17 1016.0 - 0.0
31/03:00am 11.3 6.4 4.3 62 3.1 WSW 19 32 10 17 1015.5 1015.5 0.0
31/02:30am 12.2 7.4 2.6 52 4.2 SW 17 30 9 16 1015.5 - 0.0
31/02:00am 10.9 7.6 4.6 65 2.8 WSW 11 19 6 10 1015.0 - 0.0
31/01:30am 8.8 6.3 4.6 75 1.9 W 7 15 4 8 1014.8 - 0.0
31/01:00am 8.5 5.7 5.3 80 1.4 WNW 9 13 5 7 1014.5 - 0.0
31/12:30am 8.2 5.7 5.0 80 1.4 WNW 7 9 4 5 1014.0 - 0.0
31/12:00am 8.8 5.9 4.8 76 1.8 WNW 9 11 5 6 1013.8 1013.8 0.0
 
Date/Time
EST
Temp
°C
App
Temp
°C
Dew
Point
Rel
Hum
%
Delta-T
°C
Wind Press
QNH
hPa
Press
MSL
hPa
Rain
since 9 am
mm
Dir
 
Spd
km/h
Gust
km/h
Spd
kts
Gust
kts
30/11:30pm 9.4 6.9 5.0 74 2.0 WNW 7 9 4 5 1013.7 - 0.0
30/11:00pm 9.7 7.3 4.3 69 2.4 WNW 6 9 3 5 1013.5 - 0.0
30/10:30pm 11.0 8.0 4.0 62 3.1 WNW 9 13 5 7 1013.0 - 0.0
30/10:00pm 10.6 8.1 4.5 66 2.7 NNW 7 11 4 6 1012.7 - 0.0
30/09:30pm 11.1 8.3 5.2 67 2.7 NNW 9 13 5 7 1012.5 - 0.0
30/09:00pm 10.8 8.1 5.8 71 2.3 NNW 9 15 5 8 1012.2 1012.2 0.0
30/08:30pm 10.5 7.1 6.1 74 2.0 NNW 13 19 7 10 1012.4 - 0.0
30/08:00pm 10.6 7.7 6.4 75 2.0 NW 11 13 6 7 1012.4 - 0.0
30/07:30pm 10.8 7.1 6.4 74 2.1 NNW 15 20 8 11 1012.3 - 0.0
30/07:00pm 10.8 7.9 6.6 75 2.0 NNW 11 17 6 9 1012.8 - 0.0
30/06:30pm 10.8 8.3 6.4 74 2.1 NNW 9 13 5 7 1013.3 - 0.0
30/06:00pm 11.0 8.5 6.4 73 2.2 NNW 9 13 5 7 1013.5 1013.5 0.0
30/05:30pm 10.9 8.8 6.6 75 2.0 NNW 7 11 4 6 1013.9 - 0.0
30/05:00pm 10.7 8.5 6.3 74 2.1 N 7 11 4 6 1013.7 - 0.0
30/04:30pm 11.5 9.0 6.6 72 2.3 NNE 9 11 5 6 1013.9 - 0.0
30/04:00pm 12.7 9.6 7.2 69 2.7 NNE 13 19 7 10 1014.2 - 0.0
30/03:30pm 12.9 10.6 7.6 70 2.6 NNE 9 13 5 7 1014.5 - 0.0
30/03:00pm 12.7 10.0 7.2 69 2.7 NE 11 20 6 11 1014.6 1014.6 0.0
30/02:30pm 12.8 8.6 7.3 69 2.7 ENE 19 24 10 13 1015.3 - 0.0
30/02:00pm 12.7 9.0 6.3 65 3.0 ENE 15 19 8 10 1016.0 - 0.0
30/01:30pm 13.9 10.2 4.5 53 4.3 NE 13 19 7 10 1016.6 - 0.0
30/01:00pm 15.1 12.3 5.3 52 4.6 NNE 9 17 5 9 1017.5 - 0.0
30/12:30pm 13.5 11.2 5.7 59 3.7 ESE 7 13 4 7 1018.4 - 0.0
30/12:00pm 12.9 10.5 5.3 60 3.5 E 7 13 4 7 1019.3 1019.3 0.0
30/11:30am 12.8 10.1 5.7 62 3.3 ENE 9 11 5 6 1019.8 - 0.0
30/11:00am 12.6 10.1 6.4 66 2.9 ENE 9 11 5 6 1020.1 - 0.0
30/10:30am 12.1 10.0 5.7 65 3.0 N 6 9 3 5 1020.7 - 0.0
30/10:00am 11.0 8.8 6.0 71 2.3 N 7 9 4 5 1021.0 - 0.0
30/09:30am 9.3 7.1 6.4 82 1.3 NNW 7 11 4 6 1021.6 - 0.0
30/09:00am 7.7 4.7 6.0 89 0.8 NW 11 13 6 7 1022.1 1022.2 0.0
30/08:30am 5.9 2.2 4.5 91 0.6 NNW 13 17 7 9 1022.1 - 0.0
30/08:00am 4.6 1.1 3.3 91 0.5 NNW 11 15 6 8 1022.5 - 0.0
30/07:30am 4.5 1.3 3.3 92 0.5 NNW 9 13 5 7 1022.6 - 0.0
30/07:00am 4.2 1.0 3.0 92 0.5 NW 9 11 5 6 1022.6 - 0.0
30/06:30am 4.1 1.2 2.8 91 0.5 WNW 7 11 4 6 1022.7 - 0.0
30/06:00am 4.5 1.9 3.2 91 0.5 WNW 6 11 3 6 1022.8 1022.9 0.0
30/05:30am 5.1 2.4 3.8 91 0.5 N 7 13 4 7 1022.8 - 0.0
30/05:00am 5.4 2.9 3.9 90 0.6 SW 6 9 3 5 1022.9 - 0.0
30/04:30am 6.1 3.2 4.6 90 0.6 NW 9 13 5 7 1023.2 - 0.0
30/04:00am 5.9 2.2 4.4 90 0.6 WNW 13 17 7 9 1023.5 - 0.0
30/03:30am 5.8 2.1 4.3 90 0.6 WNW 13 17 7 9 1023.8 - 0.0
30/03:00am 6.0 2.3 4.3 89 0.7 WNW 13 17 7 9 1024.0 1024.1 0.0
30/02:30am 6.8 3.2 5.0 88 0.8 WNW 13 15 7 8 1024.6 - 0.0
30/02:00am 6.9 3.7 4.9 87 0.9 WNW 11 13 6 7 1025.0 - 0.0
30/01:30am 7.4 4.7 5.4 87 0.9 NW 9 15 5 8 1025.3 - 0.0
30/01:00am 8.1 4.7 5.7 85 1.1 NW 13 15 7 8 1025.8 - 0.0
30/12:30am 7.5 4.4 5.5 87 0.9 N 11 15 6 8 1026.1 - 0.0
30/12:00am 7.5 4.3 5.3 86 1.0 NW 11 15 6 8 1027.0 1027.1 0.0
 
Date/Time
EST
Temp
°C
App
Temp
°C
Dew
Point
Rel
Hum
%
Delta-T
°C
Wind Press
QNH
hPa
Press
MSL
hPa
Rain
since 9 am
mm
Dir
 
Spd
km/h
Gust
km/h
Spd
kts
Gust
kts
29/11:30pm 8.0 5.3 5.6 85 1.1 WNW 9 13 5 7 1027.5 - 0.0
29/11:00pm 8.2 5.5 5.8 85 1.1 NW 9 13 5 7 1027.6 - 0.0
29/10:30pm 8.2 5.2 6.2 87 0.9 NNW 11 15 6 8 1027.6 - 0.0
29/10:00pm 7.5 4.8 5.5 87 0.9 NW 9 11 5 6 1028.0 - 0.0
29/09:30pm 7.3 4.5 5.1 86 1.0 WNW 9 13 5 7 1028.5 - 0.0
29/09:00pm 7.8 6.0 5.4 85 1.1 NW 4 6 2 3 1028.5 1028.6 0.0
29/08:30pm 7.9 5.7 5.4 84 1.1 NNW 6 9 3 5 1028.7 - 0.0
29/08:00pm 9.0 6.8 6.1 82 1.3 N 7 9 4 5 1029.0 - 0.0
29/07:30pm 8.8 6.5 5.7 81 1.4 N 7 9 4 5 1029.2 - 0.0
29/07:00pm 9.3 7.0 5.9 79 1.6 N 7 9 4 5 1029.4 - 0.0
29/06:30pm 9.7 7.6 5.9 77 1.7 N 6 7 3 4 1029.3 - 0.0
29/06:00pm 10.0 8.7 5.8 75 1.9 W 2 7 1 4 1029.2 1029.3 0.0
29/05:30pm 10.5 9.6 5.9 73 2.1 CALM 0 0 0 0 1029.4 - 0.0
29/05:00pm 11.0 9.6 5.3 68 2.6 SSE 2 7 1 4 1029.4 - 0.0
29/04:30pm 12.1 9.3 5.0 62 3.3 SE 9 11 5 6 1029.0 - 0.0
29/04:00pm 12.4 10.0 5.1 61 3.4 SSE 7 11 4 6 1029.4 - 0.0
29/03:30pm 12.7 9.5 4.9 59 3.6 S 11 17 6 9 1029.5 - 0.0
29/03:00pm 13.3 9.8 5.5 59 3.6 S 13 17 7 9 1029.6 1029.7 0.0
29/02:30pm 13.0 9.4 4.9 58 3.7 S 13 17 7 9 1029.4 - 0.0
29/02:00pm 13.1 9.9 5.0 58 3.8 S 11 19 6 10 1029.5 - 0.0
29/01:30pm 13.2 9.2 5.1 58 3.8 S 15 19 8 10 1030.0 - 0.0
29/01:00pm 13.2 9.4 5.9 61 3.4 S 15 17 8 9 1030.5 - 0.0
29/12:30pm 13.2 10.2 5.9 61 3.4 S 11 17 6 9 1031.3 - 0.0
29/12:00pm 13.4 10.8 6.3 62 3.4 SE 9 11 5 6 1031.7 1031.8 0.0
29/11:30am 13.8 11.6 6.4 61 3.6 S 7 11 4 6 1032.3 - 0.0
29/11:00am 13.2 10.5 5.6 60 3.6 SW 9 15 5 8 1032.8 - 0.0
29/10:30am 13.0 10.8 6.4 64 3.1 W 7 11 4 6 1033.1 - 0.0
29/10:00am 12.7 10.1 6.1 64 3.1 WNW 9 13 5 7 1033.5 - 0.0
29/09:30am 11.4 9.2 6.1 70 2.5 WNW 7 11 4 6 1033.7 - 0.0
29/09:00am 10.4 8.3 6.0 74 2.0 NW 6 11 3 6 1033.9 1034.0 0.0
29/08:30am 8.7 5.9 5.1 78 1.6 WNW 9 13 5 7 1033.8 - 0.0
29/08:00am 7.8 4.5 4.7 81 1.4 WNW 11 13 6 7 1033.7 - 0.0
29/07:30am 7.1 3.4 4.6 84 1.1 WNW 13 19 7 10 1033.5 - 0.0
29/07:00am 6.5 3.5 4.2 85 1.0 WNW 9 13 5 7 1033.1 - 0.0
29/06:30am 6.3 3.3 4.0 85 1.0 WNW 9 15 5 8 1032.8 - 0.0
29/06:00am 6.7 3.8 4.4 85 1.0 WNW 9 15 5 8 1032.7 1032.8 0.0
29/05:30am 6.7 4.1 4.0 83 1.2 NW 7 11 4 6 1032.5 - 0.0
29/05:00am 6.9 3.9 4.2 83 1.2 WNW 9 13 5 7 1032.4 - 0.0
29/04:30am 7.2 4.2 4.3 82 1.3 W 9 15 5 8 1032.4 - 0.0
29/04:00am 7.7 4.4 4.5 80 1.4 WNW 11 19 6 10 1032.3 - 0.0
29/03:30am 8.1 4.8 4.7 79 1.5 WNW 11 19 6 10 1032.3 - 0.0
29/03:00am 8.3 5.1 4.9 79 1.5 W 11 17 6 9 1032.3 1032.4 0.0
29/02:30am 8.5 4.9 4.9 78 1.6 W 13 22 7 12 1032.4 - 0.0
29/02:00am 8.8 5.2 5.2 78 1.6 W 13 24 7 13 1032.5 - 0.0
29/01:30am 9.1 5.2 5.5 78 1.6 W 15 26 8 14 1032.6 - 0.0
29/01:00am 9.3 5.1 5.7 78 1.6 W 17 26 9 14 1032.7 - 0.0
29/12:30am 9.4 5.6 5.8 78 1.6 W 15 28 8 15 1032.5 - 0.0
29/12:00am 9.5 5.7 5.9 78 1.6 W 15 26 8 14 1032.7 1032.8 0.0
 
Date/Time
EST
Temp
°C
App
Temp
°C
Dew
Point
Rel
Hum
%
Delta-T
°C
Wind Press
QNH
hPa
Press
MSL
hPa
Rain
since 9 am
mm
Dir
 
Spd
km/h
Gust
km/h
Spd
kts
Gust
kts
28/11:30pm 9.3 5.9 5.9 79 1.6 W 13 22 7 12 1032.8 - 0.0
28/11:00pm 9.3 5.5 5.9 79 1.6 W 15 24 8 13 1032.7 - 0.0
28/10:30pm 9.7 6.0 6.1 78 1.7 W 15 26 8 14 1032.6 - 0.0
28/10:00pm 10.1 6.4 6.4 78 1.7 W 15 24 8 13 1032.6 - 0.0
28/09:30pm 10.0 6.3 6.5 79 1.6 WNW 15 24 8 13 1032.6 - 0.0
28/09:00pm 10.4 7.2 6.7 78 1.7 W 13 20 7 11 1032.7 1032.8 0.0
28/08:30pm 10.6 7.7 6.6 76 1.9 W 11 20 6 11 1032.5 - 0.0
28/08:00pm 10.6 7.3 6.4 75 2.0 W 13 28 7 15 1032.4 - 0.0
28/07:30pm 10.8 6.7 6.4 74 2.1 W 17 28 9 15 1032.0 - 0.0
28/07:00pm 10.8 6.7 6.2 73 2.1 W 17 28 9 15 1031.6 - 0.0
28/06:30pm 10.9 6.8 6.1 72 2.2 WSW 17 30 9 16 1031.2 - 0.0
28/06:00pm 11.2 7.1 6.1 71 2.4 WSW 17 32 9 17 1031.1 1031.2 0.0
28/05:30pm 11.6 7.1 5.9 68 2.7 WSW 19 30 10 16 1030.9 - 0.0

Other Formats:

Comma delimited format used in spreadsheet applications
http://www.bom.gov.au/fwo/IDV60801/IDV60801.94935.axf

JavaScript Object Notation format (JSON) in row-major order
http://www.bom.gov.au/fwo/IDV60801/IDV60801.94935.json